createdAt,value
2023-05-19T00:01:48.151Z,87.57
2023-05-19T00:04:15.303Z,88.20
2023-05-19T00:06:42.280Z,87.93
2023-05-19T00:09:09.914Z,87.84
2023-05-19T00:11:37.517Z,88.22
2023-05-19T00:14:05.925Z,87.20
2023-05-19T00:16:32.798Z,87.78
2023-05-19T00:19:02.629Z,87.85
2023-05-19T00:21:29.555Z,87.79
2023-05-19T00:23:56.170Z,88.21
2023-05-19T00:26:23.121Z,88.17
2023-05-19T00:28:49.921Z,88.74
2023-05-19T00:31:16.429Z,89.13
2023-05-19T00:33:43.140Z,89.49
2023-05-19T00:36:09.763Z,89.93
2023-05-19T00:38:36.691Z,90.52
2023-05-19T00:41:03.808Z,90.87
2023-05-19T00:43:30.439Z,90.95
2023-05-19T00:45:57.539Z,91.22
2023-05-19T00:48:25.126Z,91.24
2023-05-19T00:50:52.276Z,91.66
2023-05-19T00:53:19.235Z,91.91
2023-05-19T00:55:45.888Z,92.87
2023-05-19T00:58:12.418Z,93.30
2023-05-19T01:00:39.833Z,93.41
2023-05-19T01:03:13.037Z,92.27
2023-05-19T01:05:44.652Z,92.00
2023-05-19T01:08:11.181Z,91.86
2023-05-19T01:10:37.806Z,91.60
2023-05-19T01:13:04.721Z,91.91
2023-05-19T01:15:33.822Z,93.11
2023-05-19T01:18:12.929Z,92.62
2023-05-19T01:20:42.680Z,93.51
2023-05-19T01:23:18.385Z,93.24
2023-05-19T01:25:58.470Z,93.90
2023-05-19T01:28:42.258Z,94.01
2023-05-19T01:31:09.061Z,94.03
2023-05-19T01:33:35.638Z,94.94
2023-05-19T01:36:03.610Z,94.76
2023-05-19T01:38:30.367Z,93.86
2023-05-19T01:40:56.895Z,94.24
2023-05-19T01:43:24.911Z,93.16
2023-05-19T01:45:51.485Z,93.13
2023-05-19T01:48:18.198Z,92.22
2023-05-19T01:50:44.852Z,90.26
2023-05-19T01:53:11.498Z,87.79
2023-05-19T01:55:44.598Z,89.04
2023-05-19T01:58:48.040Z,89.69
2023-05-19T02:01:20.302Z,90.94
2023-05-19T02:04:10.048Z,90.99
2023-05-19T02:07:12.042Z,91.22
2023-05-19T02:09:50.604Z,91.77
2023-05-19T02:12:25.053Z,91.91
2023-05-19T02:15:05.178Z,91.85
2023-05-19T02:17:33.191Z,90.42
2023-05-19T02:20:00.020Z,90.29
2023-05-19T02:22:26.813Z,91.28
2023-05-19T02:24:53.391Z,90.87
2023-05-19T02:27:19.967Z,92.16
2023-05-19T02:29:46.499Z,90.94
2023-05-19T02:32:13.276Z,86.90
2023-05-19T02:34:39.883Z,84.49
2023-05-19T02:37:07.795Z,83.35
2023-05-19T02:39:35.303Z,83.03
2023-05-19T02:42:01.908Z,86.31
2023-05-19T02:44:28.547Z,87.80
2023-05-19T02:46:55.115Z,88.28
2023-05-19T02:49:21.657Z,88.48
2023-05-19T02:51:48.194Z,89.22
2023-05-19T02:54:14.720Z,89.82
2023-05-19T02:56:41.229Z,89.50
2023-05-19T02:59:07.824Z,88.51
2023-05-19T03:01:34.390Z,87.92
2023-05-19T03:04:01.113Z,83.73
2023-05-19T03:06:28.257Z,83.16
2023-05-19T03:08:54.753Z,83.41
2023-05-19T03:11:23.150Z,79.91
2023-05-19T03:13:49.730Z,79.38
2023-05-19T03:16:16.239Z,81.11
2023-05-19T03:18:43.019Z,79.45
2023-05-19T03:21:09.557Z,83.65
2023-05-19T03:23:36.328Z,85.39
2023-05-19T03:26:03.019Z,88.20
2023-05-19T03:28:29.654Z,87.78
2023-05-19T03:30:56.232Z,80.91
2023-05-19T03:33:23.953Z,78.49
2023-05-19T03:35:50.634Z,78.08
2023-05-19T03:38:17.148Z,77.95
2023-05-19T03:40:44.992Z,77.19
2023-05-19T03:43:11.649Z,79.08
2023-05-19T03:45:38.439Z,79.65
2023-05-19T03:48:06.004Z,81.05
2023-05-19T03:50:34.096Z,81.61
2023-05-19T03:53:00.958Z,81.38
2023-05-19T03:55:29.840Z,81.67
2023-05-19T03:57:57.099Z,81.28
2023-05-19T04:00:23.882Z,77.90
2023-05-19T04:02:51.213Z,78.97
2023-05-19T04:05:17.917Z,78.25
2023-05-19T04:07:46.611Z,77.81
2023-05-19T04:10:13.227Z,78.38
2023-05-19T04:12:39.852Z,78.33
2023-05-19T04:15:06.976Z,77.49
2023-05-19T04:17:33.612Z,77.56
2023-05-19T04:20:00.352Z,77.86
2023-05-19T04:22:26.858Z,77.72
2023-05-19T04:24:53.407Z,76.43
2023-05-19T04:27:19.999Z,77.30
2023-05-19T04:29:48.211Z,75.73
2023-05-19T04:32:17.595Z,75.22
2023-05-19T04:34:46.395Z,75.89
2023-05-19T04:37:14.126Z,74.59
2023-05-19T04:39:45.132Z,75.29
2023-05-19T04:42:11.861Z,74.61
2023-05-19T04:44:40.159Z,74.36
2023-05-19T04:47:10.287Z,73.47
2023-05-19T04:49:39.895Z,73.39
2023-05-19T04:52:07.545Z,72.25
2023-05-19T04:54:37.667Z,73.25
2023-05-19T04:57:04.489Z,74.54
2023-05-19T04:59:31.179Z,74.13
2023-05-19T05:01:57.939Z,74.77
2023-05-19T05:04:24.567Z,74.57
2023-05-19T05:06:51.304Z,73.42
2023-05-19T05:09:17.863Z,73.80
2023-05-19T05:11:44.710Z,73.63
2023-05-19T05:14:11.494Z,71.88
2023-05-19T05:16:38.345Z,71.62
2023-05-19T05:19:05.228Z,71.28
2023-05-19T05:21:32.002Z,71.52
2023-05-19T05:23:58.731Z,71.33
2023-05-19T05:26:26.479Z,72.13
2023-05-19T05:28:53.025Z,70.54
2023-05-19T05:31:19.602Z,69.91
2023-05-19T05:33:46.209Z,70.56
2023-05-19T05:36:13.656Z,71.17
2023-05-19T05:38:40.219Z,70.41
2023-05-19T05:41:06.860Z,69.59
2023-05-19T05:43:33.433Z,70.37
2023-05-19T05:46:00.246Z,69.62
2023-05-19T05:48:27.312Z,69.89
2023-05-19T05:50:54.544Z,69.68
2023-05-19T05:53:21.448Z,69.34
2023-05-19T05:55:48.276Z,69.87
2023-05-19T05:58:14.989Z,69.28
2023-05-19T06:00:45.277Z,68.07
2023-05-19T06:03:12.067Z,69.21
2023-05-19T06:05:39.146Z,68.60
2023-05-19T06:08:06.053Z,67.60
2023-05-19T06:10:33.270Z,68.15
2023-05-19T06:13:00.117Z,68.08
2023-05-19T06:15:26.814Z,67.26
2023-05-19T06:17:54.627Z,67.01
2023-05-19T06:20:21.341Z,67.86
2023-05-19T06:22:47.894Z,67.63
2023-05-19T06:25:14.519Z,67.75
2023-05-19T06:27:41.044Z,67.99
2023-05-19T06:30:08.636Z,65.66
2023-05-19T06:32:35.329Z,65.82
2023-05-19T06:35:02.010Z,65.38
2023-05-19T06:37:28.527Z,65.53
2023-05-19T06:39:55.387Z,65.69
2023-05-19T06:42:22.702Z,64.68
2023-05-19T06:44:49.913Z,63.92
2023-05-19T06:47:17.037Z,65.10
2023-05-19T06:49:44.531Z,64.45
2023-05-19T06:52:11.497Z,64.23
2023-05-19T06:54:38.150Z,63.44
2023-05-19T06:57:04.874Z,63.77
2023-05-19T06:59:31.479Z,64.09
2023-05-19T07:01:58.134Z,63.77
2023-05-19T07:04:24.717Z,65.05
2023-05-19T07:06:51.274Z,63.39
2023-05-19T07:09:17.844Z,63.70
2023-05-19T07:11:44.978Z,65.19
2023-05-19T07:14:11.504Z,64.12
2023-05-19T07:16:38.084Z,63.02
2023-05-19T07:19:04.696Z,62.23
2023-05-19T07:21:31.450Z,62.90
2023-05-19T07:23:57.970Z,62.43
2023-05-19T07:26:24.466Z,62.42
2023-05-19T07:28:51.847Z,63.40
2023-05-19T07:31:18.558Z,63.05
2023-05-19T07:33:45.177Z,62.95
2023-05-19T07:36:11.822Z,63.93
2023-05-19T07:38:38.473Z,63.08
2023-05-19T07:41:04.994Z,62.63
2023-05-19T07:43:31.761Z,58.28
2023-05-19T07:45:58.544Z,61.67
2023-05-19T07:48:25.952Z,62.30
2023-05-19T07:50:52.746Z,62.76
2023-05-19T07:53:20.471Z,60.39
2023-05-19T07:55:46.999Z,60.75
2023-05-19T07:58:13.525Z,60.68
2023-05-19T08:00:42.988Z,60.20
2023-05-19T08:03:09.979Z,59.06
2023-05-19T08:05:36.697Z,61.19
2023-05-19T08:08:03.654Z,61.92
2023-05-19T08:10:30.466Z,61.55
2023-05-19T08:12:57.055Z,61.75
2023-05-19T08:15:23.704Z,61.27
2023-05-19T08:17:50.265Z,59.96
2023-05-19T08:20:16.828Z,60.21
2023-05-19T08:22:43.447Z,59.66
2023-05-19T08:25:10.311Z,58.55
2023-05-19T08:27:36.855Z,59.81
2023-05-19T08:30:03.497Z,59.67
2023-05-19T08:32:30.071Z,59.15
2023-05-19T08:34:56.633Z,58.25
2023-05-19T08:37:23.258Z,56.95
2023-05-19T08:39:49.813Z,58.31
2023-05-19T08:42:16.343Z,58.00
2023-05-19T08:44:44.011Z,57.68
2023-05-19T08:47:13.840Z,59.34
2023-05-19T08:49:46.711Z,56.85
2023-05-19T08:52:33.102Z,57.65
2023-05-19T08:55:05.920Z,56.16
2023-05-19T08:57:32.912Z,54.92
2023-05-19T08:59:59.672Z,56.21
2023-05-19T09:02:26.546Z,55.72
2023-05-19T09:04:53.187Z,57.29
2023-05-19T09:07:19.746Z,55.40
2023-05-19T09:09:46.574Z,54.59
2023-05-19T09:12:13.595Z,54.44
2023-05-19T09:14:40.333Z,54.51
2023-05-19T09:17:07.116Z,54.17
2023-05-19T09:19:33.819Z,54.66
2023-05-19T09:22:01.246Z,56.25
2023-05-19T09:24:28.036Z,55.79
2023-05-19T09:26:59.898Z,54.80
2023-05-19T09:29:26.888Z,60.85
2023-05-19T09:31:54.781Z,60.16
2023-05-19T09:34:22.280Z,56.48
2023-05-19T09:36:53.369Z,57.70
2023-05-19T09:39:21.235Z,57.61
2023-05-19T09:41:47.952Z,55.71
2023-05-19T09:44:28.784Z,55.54
2023-05-19T09:46:55.396Z,53.30
2023-05-19T09:49:25.789Z,54.39
2023-05-19T09:51:57.233Z,53.95
2023-05-19T09:54:24.335Z,52.64
2023-05-19T09:57:01.129Z,54.07
2023-05-19T09:59:30.663Z,53.32
2023-05-19T10:01:59.957Z,52.60
2023-05-19T10:04:27.465Z,53.54
2023-05-19T10:06:54.874Z,56.77
2023-05-19T10:09:25.297Z,59.04
2023-05-19T10:11:53.099Z,56.19
2023-05-19T10:14:24.578Z,51.30
2023-05-19T10:16:52.284Z,55.08
2023-05-19T10:19:23.160Z,54.73
2023-05-19T10:21:49.996Z,55.60
2023-05-19T10:24:16.529Z,54.09
2023-05-19T10:27:07.432Z,52.34
2023-05-19T10:29:36.570Z,53.60
2023-05-19T10:32:06.928Z,53.85
2023-05-19T10:35:03.914Z,53.43
2023-05-19T10:37:36.746Z,51.63
2023-05-19T10:40:17.119Z,50.63
2023-05-19T10:43:21.224Z,55.85
2023-05-19T10:45:49.264Z,52.22
2023-05-19T10:48:16.698Z,52.03
2023-05-19T10:50:46.840Z,53.07
2023-05-19T10:53:18.174Z,55.21
2023-05-19T10:55:59.637Z,57.45
2023-05-19T10:58:39.799Z,52.98
2023-05-19T11:01:17.382Z,54.92
2023-05-19T11:04:14.831Z,57.12
2023-05-19T11:06:41.796Z,50.98
2023-05-19T11:09:11.429Z,50.88
2023-05-19T11:11:48.297Z,50.01
2023-05-19T11:14:23.101Z,52.31
2023-05-19T11:16:51.046Z,50.69
2023-05-19T11:19:32.429Z,52.22
2023-05-19T11:22:08.649Z,51.81
2023-05-19T11:24:52.262Z,56.25
2023-05-19T11:27:24.471Z,48.99
2023-05-19T11:29:51.757Z,50.66
2023-05-19T11:32:18.516Z,55.11
2023-05-19T11:34:45.866Z,51.14
2023-05-19T11:37:12.385Z,52.84
2023-05-19T11:39:39.583Z,51.18
2023-05-19T11:42:06.503Z,49.48
2023-05-19T11:44:33.043Z,50.18
2023-05-19T11:47:00.169Z,50.87
2023-05-19T11:49:29.438Z,51.67
2023-05-19T11:51:56.290Z,53.14
2023-05-19T11:54:29.302Z,53.52
2023-05-19T11:56:56.410Z,52.80
2023-05-19T11:59:35.450Z,50.63
2023-05-19T12:02:24.824Z,52.08
2023-05-19T12:04:51.813Z,54.33
2023-05-19T12:07:19.479Z,49.69
2023-05-19T12:09:46.659Z,52.17
2023-05-19T12:12:17.047Z,50.92
2023-05-19T12:14:43.671Z,52.68
2023-05-19T12:17:13.988Z,51.49
2023-05-19T12:19:41.560Z,52.71
2023-05-19T12:22:08.288Z,50.50
2023-05-19T12:24:35.627Z,51.29
2023-05-19T12:27:13.670Z,50.33
2023-05-19T12:29:40.313Z,47.80
2023-05-19T12:32:10.202Z,50.32
2023-05-19T12:34:37.956Z,47.75
2023-05-19T12:37:07.269Z,47.33
2023-05-19T12:39:33.906Z,47.98
2023-05-19T12:42:04.661Z,48.14
2023-05-19T12:44:31.524Z,46.29
2023-05-19T12:46:59.525Z,47.88
2023-05-19T12:49:26.228Z,49.55
2023-05-19T12:51:53.878Z,48.05
2023-05-19T12:54:23.253Z,50.24
2023-05-19T12:56:53.282Z,49.63
2023-05-19T12:59:37.421Z,52.61
2023-05-19T13:02:04.883Z,47.97
2023-05-19T13:04:31.605Z,52.66
2023-05-19T13:06:58.139Z,46.85
2023-05-19T13:09:24.725Z,46.95
2023-05-19T13:11:52.207Z,51.35
2023-05-19T13:14:18.742Z,48.65
2023-05-19T13:16:48.658Z,47.36
2023-05-19T13:19:24.858Z,46.35
2023-05-19T13:21:52.496Z,46.23
2023-05-19T13:24:19.070Z,50.33
2023-05-19T13:26:45.640Z,51.17
2023-05-19T13:29:12.199Z,53.80
2023-05-19T13:31:38.912Z,52.49
2023-05-19T13:34:05.607Z,56.46
2023-05-19T13:36:33.381Z,50.34
2023-05-19T13:39:00.840Z,46.68
2023-05-19T13:41:29.265Z,45.64
2023-05-19T13:44:01.809Z,48.17
2023-05-19T13:46:40.623Z,48.51
2023-05-19T13:49:11.124Z,48.98
2023-05-19T13:51:37.733Z,49.17
2023-05-19T13:54:04.970Z,51.97
2023-05-19T13:56:31.854Z,46.83
2023-05-19T13:58:58.470Z,50.16
2023-05-19T14:01:25.166Z,48.52
2023-05-19T14:03:52.543Z,52.03
2023-05-19T14:06:19.590Z,49.91
2023-05-19T14:08:46.110Z,49.85
2023-05-19T14:11:19.891Z,47.84
2023-05-19T14:13:52.764Z,45.26
2023-05-19T14:16:20.437Z,51.59
2023-05-19T14:18:47.057Z,52.80
2023-05-19T14:21:13.897Z,49.75
2023-05-19T14:23:40.479Z,54.48
2023-05-19T14:26:07.407Z,53.69
2023-05-19T14:28:33.994Z,52.80
2023-05-19T14:31:00.692Z,51.52
2023-05-19T14:33:27.204Z,49.82
2023-05-19T14:35:53.808Z,50.76
2023-05-19T14:38:20.433Z,49.65
2023-05-19T14:40:48.432Z,50.91
2023-05-19T14:43:14.984Z,51.05
2023-05-19T14:45:44.215Z,52.25
2023-05-19T14:48:11.825Z,52.10
2023-05-19T14:50:38.690Z,52.57
2023-05-19T14:53:05.431Z,55.47
2023-05-19T14:55:32.177Z,52.46
2023-05-19T14:57:58.802Z,51.43
2023-05-19T15:00:28.534Z,47.52
2023-05-19T15:02:55.169Z,46.54
2023-05-19T15:05:23.975Z,49.03
2023-05-19T15:07:50.723Z,50.20
2023-05-19T15:10:19.835Z,51.87
2023-05-19T15:12:46.827Z,50.01
2023-05-19T15:15:14.273Z,51.19
2023-05-19T15:17:40.982Z,55.70
2023-05-19T15:20:07.911Z,52.56
2023-05-19T15:22:34.617Z,52.55
2023-05-19T15:25:01.231Z,52.04
2023-05-19T15:27:27.772Z,52.35
2023-05-19T15:29:54.348Z,53.58
2023-05-19T15:32:20.932Z,53.40
2023-05-19T15:34:47.588Z,54.05
2023-05-19T15:37:14.136Z,53.61
2023-05-19T15:39:40.694Z,52.85
2023-05-19T15:42:07.181Z,52.50
2023-05-19T15:44:33.712Z,52.67
2023-05-19T15:47:00.379Z,53.19
2023-05-19T15:49:26.887Z,53.22
2023-05-19T15:51:53.450Z,51.04
2023-05-19T15:54:20.045Z,52.68
2023-05-19T15:56:46.556Z,51.92
2023-05-19T15:59:13.416Z,52.94
2023-05-19T16:01:40.024Z,52.74
2023-05-19T16:04:06.758Z,53.80
2023-05-19T16:06:33.331Z,53.50
2023-05-19T16:08:59.889Z,55.77
2023-05-19T16:11:26.747Z,53.44
2023-05-19T16:13:53.389Z,51.97
2023-05-19T16:16:20.016Z,52.61
2023-05-19T16:18:46.601Z,51.13
2023-05-19T16:21:13.289Z,52.38
2023-05-19T16:23:39.816Z,50.81
2023-05-19T16:26:06.337Z,50.94
2023-05-19T16:28:32.932Z,51.15
2023-05-19T16:31:00.141Z,51.06
2023-05-19T16:33:27.309Z,51.87
2023-05-19T16:35:53.912Z,50.41
2023-05-19T16:38:20.545Z,51.35
2023-05-19T16:40:47.081Z,50.41
2023-05-19T16:43:13.604Z,51.51
2023-05-19T16:45:40.179Z,51.73
2023-05-19T16:48:06.738Z,50.24
2023-05-19T16:50:33.494Z,50.30
2023-05-19T16:53:00.156Z,53.83
2023-05-19T16:55:26.817Z,52.66
2023-05-19T16:57:53.402Z,54.38
2023-05-19T17:00:20.111Z,54.45
2023-05-19T17:02:46.820Z,55.17
2023-05-19T17:05:13.500Z,55.13
2023-05-19T17:07:40.102Z,56.02
2023-05-19T17:10:08.384Z,56.42
2023-05-19T17:12:34.960Z,56.34
2023-05-19T17:15:01.501Z,56.43
2023-05-19T17:17:28.205Z,57.29
2023-05-19T17:19:54.906Z,57.70
2023-05-19T17:22:21.479Z,57.97
2023-05-19T17:24:48.120Z,57.86
2023-05-19T17:27:15.291Z,57.78
2023-05-19T17:29:41.911Z,58.43
2023-05-19T17:32:08.534Z,57.80
2023-05-19T17:34:35.197Z,59.50
2023-05-19T17:37:01.782Z,59.34
2023-05-19T17:39:28.304Z,60.26
2023-05-19T17:41:54.908Z,59.79
2023-05-19T17:44:21.494Z,59.34
2023-05-19T17:46:48.168Z,60.17
2023-05-19T17:49:15.368Z,60.12
2023-05-19T17:51:42.147Z,60.13
2023-05-19T17:54:08.859Z,60.08
2023-05-19T17:56:35.388Z,60.28
2023-05-19T17:59:02.211Z,61.18
2023-05-19T18:01:28.939Z,61.78
2023-05-19T18:03:55.997Z,61.81
2023-05-19T18:06:23.203Z,62.05
2023-05-19T18:08:51.505Z,62.14
2023-05-19T18:11:18.505Z,62.49
2023-05-19T18:13:45.105Z,63.12
2023-05-19T18:16:11.809Z,63.49
2023-05-19T18:18:41.071Z,63.42
2023-05-19T18:21:07.657Z,63.85
2023-05-19T18:23:34.202Z,63.62
2023-05-19T18:26:00.917Z,63.85
2023-05-19T18:28:29.625Z,64.50
2023-05-19T18:31:03.928Z,65.34
2023-05-19T18:33:31.306Z,65.55
2023-05-19T18:35:58.181Z,65.07
2023-05-19T18:38:24.814Z,65.49
2023-05-19T18:40:51.485Z,66.01
2023-05-19T18:43:21.175Z,66.44
2023-05-19T18:45:47.993Z,65.96
2023-05-19T18:48:15.409Z,66.40
2023-05-19T18:50:44.032Z,66.15
2023-05-19T18:53:11.632Z,66.49
2023-05-19T18:55:38.620Z,66.80
2023-05-19T18:58:06.052Z,67.47
2023-05-19T19:00:33.127Z,66.69
2023-05-19T19:03:00.034Z,67.16
2023-05-19T19:05:26.626Z,67.45
2023-05-19T19:07:53.381Z,66.90
2023-05-19T19:10:20.017Z,67.12
2023-05-19T19:12:46.649Z,67.79
2023-05-19T19:15:13.246Z,67.57
2023-05-19T19:17:42.368Z,67.99
2023-05-19T19:20:09.331Z,68.13
2023-05-19T19:22:36.012Z,68.11
2023-05-19T19:25:02.539Z,68.58
2023-05-19T19:27:31.229Z,68.47
2023-05-19T19:29:58.680Z,69.31
2023-05-19T19:32:25.640Z,69.23
2023-05-19T19:34:55.095Z,69.89
2023-05-19T19:37:21.700Z,69.37
2023-05-19T19:39:48.215Z,69.71
2023-05-19T19:42:14.810Z,69.38
2023-05-19T19:44:41.419Z,69.72
2023-05-19T19:47:08.022Z,69.33
2023-05-19T19:49:34.923Z,69.09
2023-05-19T19:52:01.549Z,69.73
2023-05-19T19:54:28.667Z,69.80
2023-05-19T19:56:55.191Z,69.87
2023-05-19T19:59:21.841Z,69.80
2023-05-19T20:01:48.453Z,70.30
2023-05-19T20:04:15.409Z,70.18
2023-05-19T20:06:42.166Z,70.18
2023-05-19T20:09:08.740Z,70.41
2023-05-19T20:11:35.287Z,70.66
2023-05-19T20:14:01.906Z,70.89
2023-05-19T20:16:28.724Z,70.53
2023-05-19T20:18:55.401Z,70.64
2023-05-19T20:21:22.050Z,70.70
2023-05-19T20:23:50.379Z,70.82
2023-05-19T20:26:17.463Z,70.33
2023-05-19T20:28:44.084Z,71.23
2023-05-19T20:31:10.688Z,71.10
2023-05-19T20:33:37.265Z,71.49
2023-05-19T20:36:05.538Z,71.30
2023-05-19T20:38:32.077Z,71.11
2023-05-19T20:40:58.634Z,71.35
2023-05-19T20:43:25.259Z,71.17
2023-05-19T20:45:52.234Z,71.42
2023-05-19T20:48:18.848Z,71.31
2023-05-19T20:50:45.763Z,71.24
2023-05-19T20:53:12.287Z,71.65
2023-05-19T20:55:39.009Z,71.65
2023-05-19T20:58:05.779Z,71.88
2023-05-19T21:00:32.641Z,71.66
2023-05-19T21:02:59.677Z,71.61
2023-05-19T21:05:26.321Z,71.61
2023-05-19T21:07:52.910Z,72.11
2023-05-19T21:10:19.480Z,72.16
2023-05-19T21:12:46.775Z,72.24
2023-05-19T21:15:13.377Z,72.18
2023-05-19T21:17:39.981Z,72.15
2023-05-19T21:20:07.132Z,72.62
2023-05-19T21:22:35.599Z,72.66
2023-05-19T21:25:02.163Z,73.55
2023-05-19T21:27:28.801Z,73.41
2023-05-19T21:29:55.476Z,73.70
2023-05-19T21:32:22.048Z,73.76
2023-05-19T21:34:48.665Z,74.60
2023-05-19T21:37:17.226Z,74.85
2023-05-19T21:39:44.091Z,74.64
2023-05-19T21:42:10.646Z,75.05
2023-05-19T21:44:37.188Z,74.83
2023-05-19T21:47:03.772Z,74.95
2023-05-19T21:49:31.311Z,75.24
2023-05-19T21:51:58.104Z,75.17
2023-05-19T21:54:24.652Z,75.11
2023-05-19T21:56:51.240Z,74.52
2023-05-19T21:59:17.765Z,74.99
2023-05-19T22:01:44.478Z,75.84
2023-05-19T22:04:11.516Z,76.03
2023-05-19T22:06:38.135Z,75.32
2023-05-19T22:09:04.685Z,75.25
2023-05-19T22:11:31.426Z,75.63
2023-05-19T22:13:57.997Z,75.54
2023-05-19T22:16:24.600Z,75.67
2023-05-19T22:18:51.664Z,75.82
2023-05-19T22:21:18.188Z,76.16
2023-05-19T22:23:44.780Z,76.44
2023-05-19T22:26:11.357Z,76.15
2023-05-19T22:28:37.867Z,76.18
2023-05-19T22:31:04.536Z,76.23
2023-05-19T22:33:31.211Z,76.53
2023-05-19T22:35:57.893Z,76.51
2023-05-19T22:38:24.401Z,76.76
2023-05-19T22:40:51.006Z,77.19
2023-05-19T22:43:17.596Z,77.41
2023-05-19T22:45:44.175Z,77.32
2023-05-19T22:48:11.516Z,77.71
2023-05-19T22:50:38.193Z,77.22
2023-05-19T22:53:04.712Z,77.25
2023-05-19T22:55:31.527Z,77.69
2023-05-19T22:57:58.252Z,77.82
2023-05-19T23:00:24.768Z,77.63
2023-05-19T23:02:51.350Z,77.72
2023-05-19T23:05:17.885Z,77.64
2023-05-19T23:07:44.446Z,77.54
2023-05-19T23:10:11.186Z,77.41
2023-05-19T23:12:37.705Z,78.16
2023-05-19T23:15:04.660Z,77.91
2023-05-19T23:17:31.289Z,78.54
2023-05-19T23:19:57.835Z,78.13
2023-05-19T23:22:24.399Z,78.75
2023-05-19T23:24:51.113Z,78.26
2023-05-19T23:27:17.633Z,78.26
2023-05-19T23:29:50.442Z,78.57
2023-05-19T23:32:17.063Z,79.16
2023-05-19T23:34:43.640Z,79.28
2023-05-19T23:37:10.203Z,78.83
2023-05-19T23:39:38.226Z,79.13
2023-05-19T23:42:05.722Z,78.99
2023-05-19T23:44:32.317Z,78.88
2023-05-19T23:46:59.035Z,79.34
2023-05-19T23:49:25.611Z,79.03
2023-05-19T23:51:52.225Z,78.91
2023-05-19T23:54:18.808Z,79.20
2023-05-19T23:56:45.373Z,79.53
2023-05-19T23:59:11.886Z,79.28
